Time;durP1;ratioP1;P1;durP2;ratioP2;P2;SDS_P1;SDS_P2;PMS_P1;PMS_P2;Temp;Humidity;BMP_temperature;BMP_pressure;BME280_temperature;BME280_humidity;BME280_pressure;Samples;Min_cycle;Max_cycle;Signal;HPM_P1;HPM_P2
2020/12/07 00:00:09;;;;;;;4.80;4.40;;;3.50;99.90;;;;;;5051134;28;20578;-80
2020/12/07 00:02:35;;;;;;;6.30;5.22;;;3.60;99.90;;;;;;5049500;28;20247;-80
2020/12/07 00:05:02;;;;;;;4.63;4.22;;;3.60;99.90;;;;;;5048877;28;20200;-80
2020/12/07 00:07:29;;;;;;;6.63;5.07;;;3.60;99.90;;;;;;5046248;28;20188;-80
2020/12/07 00:09:56;;;;;;;5.55;4.57;;;3.50;99.90;;;;;;5030553;28;20740;-80
2020/12/07 00:12:26;;;;;;;6.97;4.78;;;3.60;99.90;;;;;;5029395;28;20204;-80
2020/12/07 00:14:52;;;;;;;6.20;5.07;;;3.60;99.90;;;;;;5035217;28;20553;-80
2020/12/07 00:17:20;;;;;;;7.55;5.13;;;3.70;99.90;;;;;;5034055;28;20653;-80
2020/12/07 00:19:47;;;;;;;5.35;4.60;;;3.70;99.90;;;;;;5049710;28;20279;-80
2020/12/07 00:22:19;;;;;;;6.93;5.13;;;4.10;99.90;;;;;;5033807;28;20255;-80
2020/12/07 00:24:45;;;;;;;6.38;4.70;;;3.70;99.90;;;;;;5045918;28;20542;-80
2020/12/07 00:27:13;;;;;;;5.85;4.05;;;3.80;99.90;;;;;;5047601;28;20203;-80
2020/12/07 00:29:39;;;;;;;5.43;4.70;;;4.30;99.90;;;;;;5029240;28;20201;-80
2020/12/07 00:32:06;;;;;;;5.18;4.53;;;3.80;99.90;;;;;;5048796;28;20548;-80
2020/12/07 00:34:32;;;;;;;4.75;3.85;;;3.70;99.90;;;;;;5047879;28;20200;-80
2020/12/07 00:36:58;;;;;;;8.20;4.32;;;3.80;99.90;;;;;;5033077;28;20552;-80
2020/12/07 00:39:25;;;;;;;4.10;3.70;;;3.80;99.90;;;;;;5040717;28;20270;-80
2020/12/07 00:41:51;;;;;;;5.00;4.47;;;3.80;99.90;;;;;;5045151;28;20250;-80
2020/12/07 00:44:18;;;;;;;6.43;4.35;;;3.80;99.90;;;;;;5033910;28;20221;-80
2020/12/07 00:46:45;;;;;;;6.03;4.63;;;3.90;99.90;;;;;;5030190;28;20204;-80
2020/12/07 00:49:11;;;;;;;5.93;4.50;;;4.50;99.90;;;;;;5030122;28;20200;-80
2020/12/07 00:51:37;;;;;;;4.18;3.78;;;3.90;99.90;;;;;;5042553;28;20187;-80
2020/12/07 00:54:04;;;;;;;5.60;4.57;;;3.90;99.90;;;;;;5032894;28;20246;-80
2020/12/07 00:56:30;;;;;;;5.45;4.88;;;4.10;99.90;;;;;;5031040;28;20634;-80
2020/12/07 00:58:57;;;;;;;4.93;4.38;;;4.00;99.90;;;;;;5033377;28;20208;-81
2020/12/07 01:01:24;;;;;;;5.25;4.25;;;3.50;99.90;;;;;;5047123;28;20196;-80
2020/12/07 01:03:51;;;;;;;5.70;3.88;;;3.90;99.90;;;;;;5049152;28;20234;-80
2020/12/07 01:06:17;;;;;;;4.00;3.60;;;3.80;99.90;;;;;;5047179;28;20710;-81
2020/12/07 01:08:44;;;;;;;7.10;4.30;;;3.80;99.90;;;;;;5034290;28;20220;-81
2020/12/07 01:11:10;;;;;;;6.03;5.10;;;3.80;99.90;;;;;;5035846;28;20730;-81
2020/12/07 01:13:38;;;;;;;4.72;4.32;;;3.80;99.90;;;;;;5049284;28;20216;-81
2020/12/07 01:16:05;;;;;;;5.45;4.95;;;3.90;99.90;;;;;;5038691;28;20669;-81
2020/12/07 01:18:32;;;;;;;5.30;4.63;;;3.90;99.90;;;;;;5029479;28;20204;-81
2020/12/07 01:20:58;;;;;;;5.38;4.88;;;3.70;99.90;;;;;;5042984;28;20200;-80
2020/12/07 01:23:24;;;;;;;5.60;4.90;;;3.70;99.90;;;;;;5038961;28;20209;-81
2020/12/07 01:25:51;;;;;;;5.15;4.65;;;3.80;99.90;;;;;;5030703;28;20192;-81
2020/12/07 01:28:17;;;;;;;5.97;5.15;;;3.80;99.90;;;;;;5029097;28;20281;-81
2020/12/07 01:30:45;;;;;;;7.70;5.63;;;3.80;99.90;;;;;;5029190;28;20196;-81
2020/12/07 01:33:11;;;;;;;6.60;4.85;;;3.70;99.90;;;;;;5030358;28;20254;-81
2020/12/07 01:35:41;;;;;;;7.28;5.85;;;3.80;99.90;;;;;;5037274;28;20246;-81
2020/12/07 01:38:08;;;;;;;6.50;5.25;;;3.80;99.90;;;;;;5049173;28;20283;-81
2020/12/07 01:40:34;;;;;;;5.90;5.30;;;3.80;99.90;;;;;;5045335;28;20196;-81
2020/12/07 01:43:01;;;;;;;6.35;4.97;;;3.80;99.90;;;;;;5052475;28;20281;-81
2020/12/07 01:45:27;;;;;;;5.95;5.35;;;3.80;99.90;;;;;;5042572;28;20197;-81
2020/12/07 01:47:53;;;;;;;4.90;4.50;;;3.80;99.90;;;;;;5033467;28;20553;-81
2020/12/07 01:50:20;;;;;;;7.05;6.35;;;3.70;99.90;;;;;;5043841;28;20196;-81
2020/12/07 01:52:48;;;;;;;8.20;5.95;;;3.70;99.90;;;;;;5045115;28;20193;-81
2020/12/07 01:55:14;;;;;;;6.68;5.65;;;3.70;99.90;;;;;;5032739;28;20657;-81
2020/12/07 01:57:40;;;;;;;6.22;5.57;;;3.70;99.90;;;;;;5033925;28;20197;-81
2020/12/07 02:00:07;;;;;;;5.78;4.88;;;3.60;99.90;;;;;;5037246;28;20266;-81
2020/12/07 02:02:34;;;;;;;6.00;5.40;;;3.70;99.90;;;;;;5052322;28;20591;-81
2020/12/07 02:05:01;;;;;;;6.93;4.82;;;3.50;99.90;;;;;;5051092;28;20206;-81
2020/12/07 02:07:29;;;;;;;6.30;5.47;;;3.70;99.90;;;;;;5041598;28;20399;-81
2020/12/07 02:10:01;;;;;;;5.45;4.97;;;4.40;99.90;;;;;;5052430;28;20208;-81
2020/12/07 02:12:30;;;;;;;5.10;4.60;;;3.90;99.90;;;;;;5032456;28;20211;-82
2020/12/07 02:14:58;;;;;;;6.80;5.40;;;3.60;99.90;;;;;;5034169;28;20235;-81
2020/12/07 02:17:26;;;;;;;7.32;5.50;;;3.70;99.90;;;;;;5052286;28;20732;-81
2020/12/07 02:19:54;;;;;;;7.85;5.10;;;3.80;99.90;;;;;;5045789;28;20192;-81
2020/12/07 02:22:22;;;;;;;5.32;4.82;;;3.80;99.90;;;;;;5033690;28;20223;-81
2020/12/07 02:24:50;;;;;;;6.57;5.05;;;3.90;99.90;;;;;;5052273;28;20774;-81
2020/12/07 02:27:18;;;;;;;4.93;4.53;;;3.90;99.90;;;;;;5045800;28;20219;-81
2020/12/07 02:29:46;;;;;;;5.72;5.15;;;4.00;99.90;;;;;;5048117;28;20208;-81
2020/12/07 02:32:16;;;;;;;6.50;5.28;;;3.90;99.90;;;;;;5034828;28;21823;-81
2020/12/07 02:34:44;;;;;;;4.88;4.43;;;4.00;99.90;;;;;;5045079;28;20291;-81
2020/12/07 02:37:12;;;;;;;5.35;4.47;;;3.90;99.90;;;;;;5041427;28;20705;-81
2020/12/07 02:39:39;;;;;;;5.75;4.72;;;3.90;99.90;;;;;;5047106;28;20231;-81
2020/12/07 02:42:07;;;;;;;5.13;4.63;;;3.90;99.90;;;;;;5034641;28;20291;-81
2020/12/07 02:44:33;;;;;;;4.40;4.00;;;4.00;99.90;;;;;;5032384;28;20228;-81
2020/12/07 02:47:00;;;;;;;5.18;4.75;;;4.00;99.90;;;;;;5039385;28;20193;-81
2020/12/07 02:49:27;;;;;;;5.35;4.45;;;4.00;99.90;;;;;;5032161;28;20502;-81
2020/12/07 02:51:53;;;;;;;4.82;4.30;;;4.00;99.90;;;;;;5048414;28;20200;-82
2020/12/07 02:54:21;;;;;;;7.07;4.85;;;4.10;99.90;;;;;;5049636;28;20582;-82
2020/12/07 02:56:47;;;;;;;5.85;5.25;;;4.00;99.90;;;;;;5051819;28;20230;-82
2020/12/07 02:59:14;;;;;;;4.93;4.50;;;4.00;99.90;;;;;;5033795;28;20188;-82
2020/12/07 03:01:40;;;;;;;5.50;4.63;;;3.90;99.90;;;;;;5032313;28;20189;-81
2020/12/07 03:04:07;;;;;;;4.90;4.40;;;3.90;99.90;;;;;;5031553;28;20617;-82
2020/12/07 03:06:33;;;;;;;4.90;4.35;;;3.80;99.90;;;;;;5043843;28;20250;-82
2020/12/07 03:08:59;;;;;;;5.10;4.60;;;3.80;99.90;;;;;;5030713;28;20205;-82
2020/12/07 03:11:27;;;;;;;4.07;3.67;;;3.80;99.90;;;;;;5036977;28;20197;-81
2020/12/07 03:13:53;;;;;;;4.97;4.57;;;3.90;99.90;;;;;;5049403;28;20269;-81
2020/12/07 03:16:19;;;;;;;4.20;3.80;;;4.50;99.90;;;;;;5036608;28;20203;-82
2020/12/07 03:18:46;;;;;;;5.05;3.85;;;3.90;99.90;;;;;;5042465;28;20196;-82
2020/12/07 03:21:12;;;;;;;4.97;3.97;;;3.90;99.90;;;;;;5041991;28;20593;-82
2020/12/07 03:23:38;;;;;;;4.88;4.00;;;4.00;99.90;;;;;;5031526;28;20229;-81
2020/12/07 03:26:05;;;;;;;4.10;3.65;;;4.00;99.90;;;;;;5035018;28;20536;-82
2020/12/07 03:28:32;;;;;;;4.75;4.30;;;3.90;99.90;;;;;;5031375;28;20219;-82
2020/12/07 03:30:59;;;;;;;4.20;3.80;;;4.00;99.90;;;;;;5035038;28;20596;-81
2020/12/07 03:33:25;;;;;;;4.70;4.20;;;3.90;99.90;;;;;;5030894;28;20201;-81
2020/12/07 03:35:51;;;;;;;4.75;3.83;;;4.10;99.90;;;;;;5035105;28;20227;-82
2020/12/07 03:38:18;;;;;;;4.00;3.55;;;3.90;99.90;;;;;;5031106;28;20197;-81
2020/12/07 03:40:44;;;;;;;3.53;3.22;;;3.80;99.90;;;;;;5034949;28;20688;-82
2020/12/07 03:43:10;;;;;;;4.35;3.83;;;3.80;99.90;;;;;;5030468;28;20212;-82
2020/12/07 03:45:38;;;;;;;4.85;3.95;;;3.90;99.90;;;;;;5038403;28;20720;-82
2020/12/07 03:48:04;;;;;;;4.57;4.15;;;3.80;99.90;;;;;;5041153;28;20202;-82
2020/12/07 03:50:30;;;;;;;4.38;3.80;;;3.80;99.90;;;;;;5038735;28;20251;-82
2020/12/07 03:52:57;;;;;;;5.15;4.25;;;3.90;99.90;;;;;;5038735;28;20188;-82
2020/12/07 03:55:23;;;;;;;4.57;4.18;;;3.90;99.90;;;;;;5037939;28;20257;-82
2020/12/07 03:57:50;;;;;;;5.95;4.50;;;3.80;99.90;;;;;;5051434;28;20231;-82
2020/12/07 04:00:16;;;;;;;4.45;4.00;;;3.90;99.90;;;;;;5047910;28;20250;-82
2020/12/07 04:02:43;;;;;;;4.10;3.58;;;4.00;99.90;;;;;;5050892;28;20204;-82
2020/12/07 04:05:17;;;;;;;4.53;4.10;;;3.90;99.90;;;;;;5043676;28;20196;-82
2020/12/07 04:07:43;;;;;;;6.00;4.93;;;3.90;99.90;;;;;;5031289;28;20196;-82
2020/12/07 04:10:09;;;;;;;4.50;4.10;;;4.00;99.90;;;;;;5033991;28;20279;-82
2020/12/07 04:12:37;;;;;;;4.70;4.25;;;3.90;99.90;;;;;;5030432;28;20216;-82
2020/12/07 04:15:03;;;;;;;4.20;3.83;;;4.00;99.90;;;;;;5031927;28;20716;-82
2020/12/07 04:17:30;;;;;;;10.63;5.00;;;3.90;99.90;;;;;;5031011;28;20196;-82
2020/12/07 04:19:57;;;;;;;5.15;4.40;;;3.90;99.90;;;;;;5043227;28;20192;-82
2020/12/07 04:22:23;;;;;;;5.03;4.53;;;4.00;99.90;;;;;;5043271;28;20196;-82
2020/12/07 04:24:50;;;;;;;4.95;4.28;;;3.80;99.90;;;;;;5040594;28;20235;-82
2020/12/07 04:27:16;;;;;;;4.53;4.13;;;3.70;99.90;;;;;;5036449;28;20207;-82
2020/12/07 04:29:42;;;;;;;5.65;4.60;;;3.80;99.90;;;;;;5051059;28;20257;-82
2020/12/07 04:32:09;;;;;;;4.38;3.95;;;3.90;99.90;;;;;;5033731;28;20585;-82
2020/12/07 04:34:35;;;;;;;5.82;4.60;;;4.50;99.90;;;;;;5032010;28;20230;-82
2020/12/07 04:37:02;;;;;;;4.05;3.70;;;4.10;99.90;;;;;;5050604;28;20250;-82
2020/12/07 04:39:29;;;;;;;4.55;4.15;;;4.10;99.90;;;;;;5048677;28;20192;-82
2020/12/07 04:41:56;;;;;;;4.97;4.35;;;4.10;99.90;;;;;;5030865;28;20197;-82
2020/12/07 04:44:22;;;;;;;5.32;4.47;;;4.10;99.90;;;;;;5031913;28;20219;-82
2020/12/07 04:46:50;;;;;;;4.55;4.15;;;4.10;99.90;;;;;;5038449;28;20263;-82
2020/12/07 04:49:17;;;;;;;4.28;3.92;;;4.00;99.90;;;;;;5030730;28;20201;-82
2020/12/07 04:51:43;;;;;;;4.60;4.10;;;4.10;99.90;;;;;;5045792;28;20200;-82
2020/12/07 04:54:15;;;;;;;6.47;5.20;;;4.20;99.90;;;;;;5031836;28;20232;-82
2020/12/07 04:56:42;;;;;;;6.43;4.50;;;4.10;99.90;;;;;;5034932;28;20206;-82
2020/12/07 04:59:09;;;;;;;5.00;4.47;;;4.10;99.90;;;;;;5046259;28;20197;-82
2020/12/07 05:01:35;;;;;;;4.90;3.72;;;4.10;99.90;;;;;;5040545;28;20271;-82
2020/12/07 05:04:02;;;;;;;5.15;3.95;;;4.00;99.90;;;;;;5030372;28;20216;-82
2020/12/07 05:06:30;;;;;;;5.07;4.57;;;4.00;99.90;;;;;;5046086;28;20200;-82
2020/12/07 05:08:57;;;;;;;4.00;3.60;;;4.00;99.90;;;;;;5050232;28;20214;-82
2020/12/07 05:11:26;;;;;;;4.78;4.38;;;4.10;99.90;;;;;;5033043;28;20207;-82
2020/12/07 05:13:57;;;;;;;8.23;5.18;;;4.10;99.90;;;;;;5030120;28;20280;-83
2020/12/07 05:16:25;;;;;;;6.15;4.50;;;4.10;99.90;;;;;;5043293;28;20200;-82
2020/12/07 05:18:51;;;;;;;5.10;4.32;;;4.00;99.90;;;;;;5038768;28;20196;-82
2020/12/07 05:21:19;;;;;;;5.78;5.18;;;4.00;99.90;;;;;;5041483;28;20200;-81
2020/12/07 05:23:51;;;;;;;7.10;5.00;;;3.90;99.90;;;;;;5049360;28;20224;-82
2020/12/07 05:26:18;;;;;;;6.53;5.05;;;3.90;99.90;;;;;;5049693;28;20254;-82
2020/12/07 05:28:49;;;;;;;6.05;5.35;;;3.90;99.90;;;;;;5030584;28;20207;-82
2020/12/07 05:31:17;;;;;;;5.60;4.70;;;4.10;99.90;;;;;;5041192;28;20222;-82
2020/12/07 05:33:43;;;;;;;7.40;4.95;;;4.10;99.90;;;;;;5030410;28;20263;-82
2020/12/07 05:36:11;;;;;;;6.15;4.80;;;4.10;99.90;;;;;;5043709;28;20238;-83
2020/12/07 05:38:37;;;;;;;6.57;5.40;;;4.20;99.90;;;;;;5042177;28;20669;-84
2020/12/07 05:41:04;;;;;;;8.43;6.28;;;4.20;99.90;;;;;;5042916;28;20232;-83
2020/12/07 05:43:32;;;;;;;5.03;4.43;;;4.20;99.90;;;;;;5049932;28;20208;-84
2020/12/07 05:46:00;;;;;;;5.60;4.80;;;4.20;99.90;;;;;;5049778;28;20224;-83
2020/12/07 05:48:29;;;;;;;6.78;5.05;;;4.00;99.90;;;;;;5049732;28;20253;-84
2020/12/07 05:51:00;;;;;;;7.65;5.53;;;3.90;99.90;;;;;;5041778;28;20223;-82
2020/12/07 05:53:27;;;;;;;5.53;4.68;;;4.00;99.90;;;;;;5034314;28;20703;-83
2020/12/07 05:55:54;;;;;;;7.43;5.55;;;3.90;99.90;;;;;;5049799;28;20200;-83
2020/12/07 05:58:22;;;;;;;4.85;4.07;;;3.90;99.90;;;;;;5034636;28;20751;-84
2020/12/07 06:00:54;;;;;;;10.55;5.47;;;3.90;99.90;;;;;;5035286;28;20602;-82
2020/12/07 06:03:21;;;;;;;6.25;5.32;;;3.90;99.90;;;;;;5031745;28;20279;-83
2020/12/07 06:05:48;;;;;;;7.32;6.03;;;4.00;99.90;;;;;;5030013;28;20254;-84
2020/12/07 06:08:16;;;;;;;8.73;7.45;;;4.00;99.90;;;;;;5037299;28;20748;-84
2020/12/07 06:10:48;;;;;;;9.68;6.80;;;3.90;99.90;;;;;;5049375;28;20200;-84
2020/12/07 06:13:19;;;;;;;10.68;6.32;;;3.80;99.90;;;;;;5046093;28;20262;-84
2020/12/07 06:15:47;;;;;;;6.53;5.18;;;3.80;99.90;;;;;;5029132;28;20197;-84
2020/12/07 06:18:26;;;;;;;6.72;5.47;;;3.80;99.90;;;;;;5030350;28;20542;-84
2020/12/07 06:20:57;;;;;;;7.68;5.97;;;3.80;99.90;;;;;;5032722;28;20239;-83
2020/12/07 06:23:31;;;;;;;7.07;5.80;;;3.80;99.90;;;;;;5042311;28;20216;-84
2020/12/07 06:26:00;;;;;;;7.28;5.68;;;3.80;99.90;;;;;;5035776;28;20195;-84
2020/12/07 06:28:31;;;;;;;6.88;6.18;;;3.70;99.90;;;;;;5042250;28;20279;-84
2020/12/07 06:31:03;;;;;;;7.47;5.43;;;3.70;99.90;;;;;;5042874;28;20676;-85
2020/12/07 06:33:37;;;;;;;8.75;6.13;;;3.80;99.90;;;;;;5049301;28;20271;-86
2020/12/07 06:36:03;;;;;;;6.28;5.68;;;3.80;99.90;;;;;;5053214;28;20231;-86
2020/12/07 06:38:40;;;;;;;6.40;5.80;;;3.70;99.90;;;;;;5050598;28;20258;-86
2020/12/07 06:41:07;;;;;;;11.82;7.35;;;3.80;99.90;;;;;;5051432;28;20192;-86
2020/12/07 06:43:34;;;;;;;8.30;6.88;;;4.80;99.90;;;;;;5038668;28;20212;-86
2020/12/07 06:46:00;;;;;;;8.18;7.35;;;3.70;99.90;;;;;;5039479;28;20192;-86
2020/12/07 06:48:27;;;;;;;9.50;8.50;;;3.90;99.90;;;;;;5041979;28;20837;-86
2020/12/07 06:50:57;;;;;;;7.97;7.10;;;3.90;99.90;;;;;;5031955;28;20205;-85
2020/12/07 06:53:42;;;;;;;9.95;7.63;;;3.90;99.90;;;;;;5038376;28;20716;-85
2020/12/07 06:56:09;;;;;;;8.05;6.85;;;3.90;99.90;;;;;;5052570;28;20208;-86
2020/12/07 06:58:37;;;;;;;10.68;8.80;;;3.90;99.90;;;;;;5050782;28;20192;-86
2020/12/07 07:01:11;;;;;;;10.93;8.18;;;3.90;99.90;;;;;;5051690;28;20200;-86
2020/12/07 07:03:49;;;;;;;8.70;7.60;;;3.90;99.90;;;;;;5046232;28;20266;-85
2020/12/07 07:06:20;;;;;;;14.90;8.00;;;3.90;99.90;;;;;;5052595;28;20715;-87
2020/12/07 07:08:47;;;;;;;10.85;8.50;;;4.00;99.90;;;;;;5042114;28;20200;-87
2020/12/07 07:11:14;;;;;;;15.63;9.95;;;3.90;99.90;;;;;;5031889;28;20205;-86
2020/12/07 07:13:45;;;;;;;12.98;8.82;;;4.10;99.90;;;;;;5037747;28;20255;-87
2020/12/07 07:16:12;;;;;;;12.32;8.70;;;4.10;99.90;;;;;;5032648;28;20258;-85
2020/12/07 07:18:41;;;;;;;11.90;8.10;;;4.10;99.90;;;;;;5048169;28;20708;-86
2020/12/07 07:21:07;;;;;;;10.50;8.60;;;4.10;99.90;;;;;;5051119;28;20196;-87
2020/12/07 07:23:38;;;;;;;9.40;8.40;;;4.10;99.90;;;;;;5048468;28;20421;-87
2020/12/07 07:26:19;;;;;;;14.13;8.13;;;4.20;99.90;;;;;;5051203;28;20204;-87
2020/12/07 07:28:46;;;;;;;11.73;8.07;;;4.20;99.90;;;;;;5039548;28;20228;-87
2020/12/07 07:31:14;;;;;;;9.82;8.02;;;4.80;99.90;;;;;;5031828;28;20201;-86
2020/12/07 07:33:40;;;;;;;11.35;7.82;;;4.80;99.90;;;;;;5042301;28;20197;-86
2020/12/07 07:36:07;;;;;;;12.27;7.82;;;4.30;99.90;;;;;;5031888;28;20212;-86
2020/12/07 07:38:34;;;;;;;12.70;7.75;;;5.20;99.90;;;;;;5040788;28;20193;-86
2020/12/07 07:41:01;;;;;;;8.30;7.45;;;4.40;99.90;;;;;;5031154;28;20211;-86
2020/12/07 07:43:29;;;;;;;8.52;7.63;;;5.20;99.90;;;;;;5032856;28;20674;-86
2020/12/07 07:46:00;;;;;;;12.63;8.27;;;4.50;99.90;;;;;;5045309;28;20185;-86
2020/12/07 07:48:34;;;;;;;12.27;7.97;;;4.50;99.90;;;;;;5037758;28;20271;-86
2020/12/07 07:51:51;;;;;;;8.32;7.28;;;4.50;99.90;;;;;;5031198;28;20207;-86
2020/12/07 08:16:26;;;;;;;7.05;6.20;;;4.60;99.90;;;;;;5020025;28;20205;-86
2020/12/07 08:18:56;;;;;;;8.00;6.28;;;4.60;99.90;;;;;;5048244;28;20196;-86
2020/12/07 08:21:31;;;;;;;7.68;6.90;;;4.70;99.90;;;;;;5048765;28;20211;-86
2020/12/07 08:24:06;;;;;;;6.25;5.65;;;4.70;99.90;;;;;;5049020;28;20247;-85
2020/12/07 08:26:32;;;;;;;7.22;6.38;;;4.60;99.90;;;;;;5050802;28;20243;-86
2020/12/07 08:29:06;;;;;;;8.40;6.28;;;4.90;99.90;;;;;;5038791;28;20258;-85
2020/12/07 08:31:35;;;;;;;8.52;7.25;;;4.80;99.90;;;;;;5032250;28;20264;-85
2020/12/07 08:34:03;;;;;;;8.30;6.90;;;4.70;99.90;;;;;;5040898;28;20569;-86
2020/12/07 08:36:32;;;;;;;9.48;7.47;;;4.90;99.90;;;;;;5043608;28;20204;-86
2020/12/07 08:38:59;;;;;;;13.55;7.93;;;4.90;99.90;;;;;;5048836;28;20204;-85
2020/12/07 08:41:27;;;;;;;10.02;7.10;;;4.80;99.90;;;;;;5048192;28;20189;-87
2020/12/07 08:43:55;;;;;;;7.93;7.13;;;4.80;99.90;;;;;;5042053;28;20224;-87
2020/12/07 08:46:23;;;;;;;9.02;7.03;;;5.10;99.90;;;;;;5042672;28;20200;-86
2020/12/07 08:48:50;;;;;;;11.77;7.50;;;4.90;99.90;;;;;;5039982;28;20241;-86
2020/12/07 08:51:20;;;;;;;7.10;5.85;;;5.00;99.90;;;;;;5032811;28;20258;-86
2020/12/07 08:53:47;;;;;;;8.02;7.25;;;5.00;99.90;;;;;;5035535;28;20749;-86
2020/12/07 08:56:14;;;;;;;7.07;5.47;;;5.10;99.90;;;;;;5034449;28;20203;-86
2020/12/07 08:58:40;;;;;;;8.48;6.80;;;5.00;99.90;;;;;;5048529;28;20294;-87
2020/12/07 09:01:15;;;;;;;7.00;6.20;;;5.00;99.90;;;;;;5047629;28;20230;-87
2020/12/07 09:03:44;;;;;;;7.15;5.97;;;5.20;99.90;;;;;;5048378;28;20258;-87
2020/12/07 09:06:12;;;;;;;6.00;5.20;;;5.80;99.90;;;;;;5050811;28;20220;-87
2020/12/07 09:08:39;;;;;;;6.38;5.72;;;5.20;99.90;;;;;;5051257;28;20223;-87
2020/12/07 09:11:07;;;;;;;6.25;5.65;;;5.20;99.90;;;;;;5051838;28;20207;-86
2020/12/07 09:13:35;;;;;;;7.18;5.80;;;5.30;99.90;;;;;;5052007;28;20661;-87
2020/12/07 09:16:02;;;;;;;8.18;6.82;;;5.40;99.90;;;;;;5051965;28;20200;-87
2020/12/07 09:18:28;;;;;;;7.80;5.57;;;5.50;99.90;;;;;;5053312;28;20536;-87
2020/12/07 09:20:56;;;;;;;5.70;5.10;;;5.60;99.90;;;;;;5052547;28;20195;-87
2020/12/07 09:23:24;;;;;;;7.13;6.43;;;5.60;99.90;;;;;;5051109;28;20196;-87
2020/12/07 09:25:52;;;;;;;7.05;6.07;;;5.50;99.90;;;;;;5053170;28;20187;-87
2020/12/07 09:28:18;;;;;;;9.20;6.30;;;5.50;99.80;;;;;;5052727;28;20203;-87
2020/12/07 09:30:45;;;;;;;7.05;5.65;;;5.60;99.90;;;;;;5053677;28;20199;-86
2020/12/07 09:33:12;;;;;;;6.97;5.55;;;5.60;99.90;;;;;;5051266;28;20666;-87
2020/12/07 09:35:38;;;;;;;6.50;5.50;;;5.40;99.90;;;;;;5036763;28;20191;-87
2020/12/07 09:38:06;;;;;;;7.55;5.75;;;5.30;99.90;;;;;;5052752;28;20199;-87
2020/12/07 09:40:33;;;;;;;6.25;5.65;;;5.40;99.90;;;;;;5052680;28;20835;-87
2020/12/07 09:43:01;;;;;;;6.93;5.63;;;5.20;99.90;;;;;;5052523;28;20208;-87
2020/12/07 09:45:27;;;;;;;7.53;5.32;;;5.30;99.90;;;;;;5053161;28;20277;-87
2020/12/07 09:47:54;;;;;;;6.07;5.40;;;5.40;99.90;;;;;;5053023;28;20200;-87
2020/12/07 09:50:22;;;;;;;7.15;5.88;;;5.20;99.90;;;;;;5054152;28;20231;-87
2020/12/07 09:52:49;;;;;;;6.85;6.03;;;5.30;99.90;;;;;;5053983;28;20220;-86
2020/12/07 09:55:16;;;;;;;6.88;5.65;;;5.30;99.90;;;;;;5053858;28;20196;-86
2020/12/07 09:57:43;;;;;;;6.55;5.72;;;5.50;99.90;;;;;;5054202;28;20188;-87
2020/12/07 10:00:11;;;;;;;6.97;6.25;;;5.50;99.90;;;;;;5054624;28;20211;-87
2020/12/07 10:02:37;;;;;;;6.25;4.85;;;5.50;99.90;;;;;;5056566;28;20566;-87
2020/12/07 10:05:04;;;;;;;6.95;5.60;;;5.50;99.90;;;;;;5057983;28;20211;-87
2020/12/07 10:07:31;;;;;;;6.78;5.15;;;5.50;99.90;;;;;;5058781;28;20207;-87
2020/12/07 10:10:00;;;;;;;5.95;5.22;;;5.70;99.90;;;;;;5057856;28;20184;-86
2020/12/07 10:12:27;;;;;;;5.30;4.80;;;5.50;99.90;;;;;;5058480;28;20275;-86
2020/12/07 10:14:55;;;;;;;7.13;5.78;;;5.70;99.90;;;;;;5058796;28;20222;-87
2020/12/07 10:17:22;;;;;;;5.38;4.88;;;6.00;99.90;;;;;;5057659;28;20222;-87
2020/12/07 10:19:48;;;;;;;5.70;4.70;;;5.70;99.90;;;;;;5058127;28;20197;-87
2020/12/07 10:22:15;;;;;;;5.93;5.32;;;5.50;99.20;;;;;;5058194;28;20212;-86
2020/12/07 10:24:41;;;;;;;5.30;4.80;;;5.60;99.60;;;;;;5058512;28;20225;-86
2020/12/07 10:27:08;;;;;;;7.30;5.18;;;5.60;99.20;;;;;;5058087;28;20192;-86
2020/12/07 10:29:37;;;;;;;5.32;4.55;;;5.50;99.00;;;;;;5058018;28;20196;-86
2020/12/07 10:32:04;;;;;;;5.00;4.60;;;5.50;99.60;;;;;;5057095;28;20215;-85
2020/12/07 10:34:31;;;;;;;5.90;5.22;;;5.50;99.90;;;;;;5055583;28;20675;-86
2020/12/07 10:36:58;;;;;;;6.32;5.20;;;5.80;99.70;;;;;;5046090;28;20664;-86
2020/12/07 10:39:25;;;;;;;6.30;5.70;;;6.40;99.90;;;;;;5051991;28;20200;-86
2020/12/07 10:41:51;;;;;;;5.80;5.07;;;5.90;99.90;;;;;;5057951;28;20207;-86
2020/12/07 10:44:21;;;;;;;5.50;5.00;;;5.80;99.80;;;;;;5052056;28;20570;-86
2020/12/07 10:46:50;;;;;;;5.72;4.90;;;5.90;99.90;;;;;;5047602;28;20257;-85
2020/12/07 10:49:17;;;;;;;6.45;5.38;;;5.80;99.90;;;;;;5042264;28;20215;-86
2020/12/07 10:51:48;;;;;;;5.45;4.95;;;5.90;99.50;;;;;;5057021;28;20200;-87
2020/12/07 10:54:14;;;;;;;6.18;5.03;;;4.90;99.70;;;;;;5055779;28;20192;-87
2020/12/07 10:56:44;;;;;;;5.32;4.82;;;6.10;99.50;;;;;;5051827;28;20526;-87
2020/12/07 10:59:10;;;;;;;4.57;4.18;;;5.90;98.80;;;;;;5039095;28;20287;-87
2020/12/07 11:01:37;;;;;;;6.10;5.50;;;5.90;98.80;;;;;;5053132;28;20554;-86
2020/12/07 11:04:04;;;;;;;5.63;5.13;;;6.10;98.80;;;;;;5056420;28;20216;-87
2020/12/07 11:06:33;;;;;;;7.15;6.00;;;6.30;98.30;;;;;;5057467;28;20192;-87
2020/12/07 11:09:05;;;;;;;5.20;4.80;;;6.80;98.10;;;;;;5048178;28;20807;-87
2020/12/07 11:11:31;;;;;;;6.50;5.78;;;6.80;97.80;;;;;;5047405;28;20187;-87
2020/12/07 11:13:58;;;;;;;5.57;4.85;;;6.90;97.50;;;;;;5042935;28;20197;-85
2020/12/07 11:16:25;;;;;;;4.93;4.43;;;6.80;96.60;;;;;;5055307;28;20200;-87
2020/12/07 11:18:51;;;;;;;4.85;4.45;;;6.40;99.90;;;;;;5045593;28;20201;-88
2020/12/07 11:21:19;;;;;;;5.22;4.47;;;6.80;95.60;;;;;;5037234;28;21062;-87
2020/12/07 11:23:47;;;;;;;6.28;5.25;;;6.60;96.00;;;;;;5041048;28;20196;-87
2020/12/07 11:26:20;;;;;;;5.45;4.95;;;8.20;97.20;;;;;;5058257;28;20220;-86
2020/12/07 11:28:56;;;;;;;;;;;;;;;;;;;;;
2020/12/07 11:31:33;;;;;;;10.05;4.45;;;6.20;96.80;;;;;;5052262;28;20314;-86
2020/12/07 11:34:12;;;;;;;;;;;;;;;;;;;;;
2020/12/07 11:36:49;;;;;;;6.00;4.82;;;6.10;98.80;;;;;;5053550;28;20211;-87
2020/12/07 11:39:29;;;;;;;5.00;4.50;;;5.70;97.10;;;;;;5050011;28;20204;-87
2020/12/07 11:42:21;;;;;;;8.80;4.28;;;6.70;97.90;;;;;;5053267;28;20193;-87
2020/12/07 11:44:48;;;;;;;6.25;5.28;;;5.60;96.50;;;;;;5050438;28;20219;-85
2020/12/07 11:47:17;;;;;;;6.57;4.78;;;5.70;99.20;;;;;;5039260;28;20897;-86
2020/12/07 11:49:43;;;;;;;5.18;4.68;;;5.70;97.80;;;;;;5054769;28;20202;-86
2020/12/07 11:52:11;;;;;;;5.90;5.32;;;5.60;96.90;;;;;;5056487;28;20203;-85
2020/12/07 11:54:39;;;;;;;4.80;4.38;;;5.80;98.60;;;;;;5051919;28;20208;-86
2020/12/07 11:57:06;;;;;;;4.80;4.32;;;5.90;97.00;;;;;;5056169;28;20242;-86
2020/12/07 11:59:34;;;;;;;4.45;4.05;;;5.90;96.30;;;;;;5054193;28;20192;-86
2020/12/07 12:02:01;;;;;;;4.57;4.18;;;5.70;96.10;;;;;;5053078;28;20223;-85
2020/12/07 12:04:30;;;;;;;4.75;4.10;;;5.60;97.70;;;;;;5050450;28;20303;-86
2020/12/07 12:06:57;;;;;;;4.53;4.13;;;5.90;96.60;;;;;;5053006;28;20277;-86
2020/12/07 12:09:24;;;;;;;4.95;4.45;;;6.00;97.10;;;;;;5043929;28;20200;-86
2020/12/07 12:11:51;;;;;;;6.45;4.82;;;6.30;96.90;;;;;;5039803;28;20231;-86
2020/12/07 12:14:22;;;;;;;4.95;4.47;;;6.20;96.50;;;;;;5052951;28;20253;-86
2020/12/07 12:16:49;;;;;;;4.60;4.20;;;6.20;96.50;;;;;;5052066;28;20215;-87
2020/12/07 12:19:17;;;;;;;6.05;4.47;;;6.30;98.50;;;;;;5035326;28;20189;-86
2020/12/07 12:21:46;;;;;;;5.15;4.65;;;6.30;97.60;;;;;;5050602;28;20188;-85
2020/12/07 12:24:14;;;;;;;5.30;4.43;;;6.30;97.10;;;;;;5052065;28;20236;-86
2020/12/07 12:26:41;;;;;;;9.13;5.30;;;6.50;96.50;;;;;;5038357;28;20239;-85
2020/12/07 12:29:08;;;;;;;6.18;4.05;;;6.40;95.60;;;;;;5053732;28;20202;-85
2020/12/07 12:31:37;;;;;;;7.13;4.78;;;6.30;97.00;;;;;;5055562;28;20195;-85
2020/12/07 12:34:04;;;;;;;4.55;4.15;;;6.20;96.40;;;;;;5055178;28;20219;-86
2020/12/07 12:36:33;;;;;;;5.38;4.88;;;6.10;95.70;;;;;;5055580;28;20188;-87
2020/12/07 12:38:59;;;;;;;5.57;5.05;;;6.10;96.30;;;;;;5050356;28;20204;-87
2020/12/07 12:41:26;;;;;;;5.80;4.95;;;6.10;99.90;;;;;;5053566;28;20222;-87
2020/12/07 12:43:54;;;;;;;6.05;5.07;;;6.20;96.00;;;;;;5039786;28;20611;-87
2020/12/07 12:46:21;;;;;;;5.30;4.90;;;6.30;96.10;;;;;;5044359;28;20220;-85
2020/12/07 12:48:47;;;;;;;5.28;4.30;;;6.40;96.00;;;;;;5037372;28;20518;-86
2020/12/07 12:51:14;;;;;;;5.65;4.90;;;6.50;95.80;;;;;;5042928;28;20196;-86
2020/12/07 12:53:40;;;;;;;4.80;4.40;;;6.60;96.20;;;;;;5048565;28;20215;-87
2020/12/07 12:56:08;;;;;;;7.47;5.45;;;6.30;95.30;;;;;;5054654;28;20261;-86
2020/12/07 12:58:35;;;;;;;5.30;4.82;;;4.70;95.30;;;;;;5053462;28;20202;-87
2020/12/07 13:01:03;;;;;;;4.82;4.38;;;6.40;95.70;;;;;;5054407;28;20200;-86
2020/12/07 13:03:30;;;;;;;4.97;4.57;;;6.20;95.40;;;;;;5036330;28;20207;-85
2020/12/07 13:06:00;;;;;;;5.53;4.57;;;6.30;95.30;;;;;;5035253;28;20224;-86
2020/12/07 13:08:27;;;;;;;5.47;4.95;;;6.10;95.30;;;;;;5036677;28;20224;-86
2020/12/07 13:10:55;;;;;;;7.15;5.22;;;6.10;95.40;;;;;;5054473;28;20199;-85
2020/12/07 13:13:22;;;;;;;4.80;4.40;;;6.80;99.90;;;;;;5051906;28;20223;-86
2020/12/07 13:15:57;;;;;;;5.65;4.45;;;6.00;99.90;;;;;;5035577;28;20225;-85
2020/12/07 13:18:27;;;;;;;6.32;4.97;;;5.90;95.00;;;;;;5039838;28;20649;-86
2020/12/07 13:21:00;;;;;;;6.68;5.40;;;6.00;99.90;;;;;;5054592;28;20283;-85
2020/12/07 13:23:32;;;;;;;4.80;4.40;;;6.70;96.10;;;;;;5047455;28;20654;-86